Las Vegas, Nevada
Traffic Map
Current Weather Conditions
Las Vegas, Nevada
Clear
Clear
64°
Feels Like: 64°
Wind Chill: 64° Ceiling: Unl
Heat Index: 64° Visibility: 10mi
Dew Point: 22° Wind: 16mph
Humidity: 20% Direction: 20° (NNE)
Pressure: 30.22in Gusts: 0mph
Raw Report DataKLAS 141956Z 02014KT 10SM CLR 18/M06 A3022 RMK AO2 SLP228 T01781056
Traffic Incident Summary
Active as of:
Severity:
Category:
InformationThere was an issue retrieving the traffic information for this location. Please try a different location or try again shortly.
Advertisements